sensor_id;sensor_type;location;lat;lon;timestamp;pressure;altitude;pressure_sealevel;temperature;humidity
38620;BME280;24376;51.986;4.662;2022-12-18T00:00:39;103851.53;;;-2.57;100.00
38620;BME280;24376;51.986;4.662;2022-12-18T00:03:04;103845.97;;;-2.67;100.00
38620;BME280;24376;51.986;4.662;2022-12-18T00:05:29;103822.75;;;-2.61;100.00
38620;BME280;24376;51.986;4.662;2022-12-18T00:07:55;103826.25;;;-2.61;100.00
38620;BME280;24376;51.986;4.662;2022-12-18T00:10:20;103821.97;;;-2.68;100.00
38620;BME280;24376;51.986;4.662;2022-12-18T00:12:45;103819.25;;;-2.62;100.00
38620;BME280;24376;51.986;4.662;2022-12-18T00:15:10;103830.97;;;-2.64;100.00
38620;BME280;24376;51.986;4.662;2022-12-18T00:17:35;103832.38;;;-2.73;100.00
38620;BME280;24376;51.986;4.662;2022-12-18T00:20:01;103839.09;;;-2.61;100.00
38620;BME280;24376;51.986;4.662;2022-12-18T00:22:26;103830.44;;;-2.61;100.00
38620;BME280;24376;51.986;4.662;2022-12-18T00:24:51;103832.09;;;-2.62;100.00
38620;BME280;24376;51.986;4.662;2022-12-18T00:27:16;103837.22;;;-2.62;100.00
38620;BME280;24376;51.986;4.662;2022-12-18T00:29:41;103837.63;;;-2.59;100.00
38620;BME280;24376;51.986;4.662;2022-12-18T00:32:07;103842.34;;;-2.62;100.00
38620;BME280;24376;51.986;4.662;2022-12-18T00:34:32;103837.94;;;-2.63;100.00
38620;BME280;24376;51.986;4.662;2022-12-18T00:36:57;103830.25;;;-2.63;100.00
38620;BME280;24376;51.986;4.662;2022-12-18T00:39:22;103841.38;;;-2.70;100.00
38620;BME280;24376;51.986;4.662;2022-12-18T00:41:48;103829.88;;;-2.66;100.00
38620;BME280;24376;51.986;4.662;2022-12-18T00:44:31;103837.91;;;-2.70;100.00
38620;BME280;24376;51.986;4.662;2022-12-18T00:46:57;103838.38;;;-2.80;100.00
38620;BME280;24376;51.986;4.662;2022-12-18T00:49:22;103834.00;;;-2.74;100.00
38620;BME280;24376;51.986;4.662;2022-12-18T00:51:47;103836.34;;;-2.82;100.00
38620;BME280;24376;51.986;4.662;2022-12-18T00:54:12;103841.47;;;-2.82;100.00
38620;BME280;24376;51.986;4.662;2022-12-18T00:56:38;103849.47;;;-2.86;100.00
38620;BME280;24376;51.986;4.662;2022-12-18T00:59:03;103860.00;;;-2.78;100.00
38620;BME280;24376;51.986;4.662;2022-12-18T01:01:29;103851.72;;;-2.82;100.00
38620;BME280;24376;51.986;4.662;2022-12-18T01:03:54;103853.00;;;-2.79;100.00
38620;BME280;24376;51.986;4.662;2022-12-18T01:06:19;103846.19;;;-2.85;100.00
38620;BME280;24376;51.986;4.662;2022-12-18T01:08:44;103852.38;;;-2.90;100.00
38620;BME280;24376;51.986;4.662;2022-12-18T01:11:14;103851.22;;;-3.00;100.00
38620;BME280;24376;51.986;4.662;2022-12-18T01:13:40;103857.13;;;-2.93;100.00
38620;BME280;24376;51.986;4.662;2022-12-18T01:16:05;103860.19;;;-2.96;100.00
38620;BME280;24376;51.986;4.662;2022-12-18T01:18:30;103859.50;;;-2.95;100.00
38620;BME280;24376;51.986;4.662;2022-12-18T01:20:56;103865.41;;;-2.89;100.00
38620;BME280;24376;51.986;4.662;2022-12-18T01:23:21;103872.31;;;-2.95;100.00
38620;BME280;24376;51.986;4.662;2022-12-18T01:25:46;103864.63;;;-2.95;100.00
38620;BME280;24376;51.986;4.662;2022-12-18T01:28:11;103854.56;;;-2.93;100.00
38620;BME280;24376;51.986;4.662;2022-12-18T01:30:37;103859.69;;;-2.93;100.00
38620;BME280;24376;51.986;4.662;2022-12-18T01:33:03;103867.38;;;-2.93;100.00
38620;BME280;24376;51.986;4.662;2022-12-18T01:35:29;103863.06;;;-3.07;100.00
38620;BME280;24376;51.986;4.662;2022-12-18T01:37:54;103874.66;;;-2.97;100.00
38620;BME280;24376;51.986;4.662;2022-12-18T01:40:20;103871.06;;;-2.91;100.00
38620;BME280;24376;51.986;4.662;2022-12-18T01:42:48;103885.84;;;-2.96;100.00
38620;BME280;24376;51.986;4.662;2022-12-18T01:50:18;103891.38;;;-3.13;100.00
38620;BME280;24376;51.986;4.662;2022-12-18T01:52:48;103891.28;;;-3.20;100.00
38620;BME280;24376;51.986;4.662;2022-12-18T01:55:16;103884.97;;;-3.09;100.00
38620;BME280;24376;51.986;4.662;2022-12-18T01:57:42;103884.97;;;-3.09;100.00
38620;BME280;24376;51.986;4.662;2022-12-18T02:00:09;103893.94;;;-3.13;100.00
38620;BME280;24376;51.986;4.662;2022-12-18T02:02:35;103896.50;;;-3.13;100.00
38620;BME280;24376;51.986;4.662;2022-12-18T02:05:00;103900.50;;;-3.15;100.00
38620;BME280;24376;51.986;4.662;2022-12-18T02:08:12;103901.94;;;-3.17;100.00
38620;BME280;24376;51.986;4.662;2022-12-18T02:10:20;103894.31;;;-3.10;100.00
38620;BME280;24376;51.986;4.662;2022-12-18T02:12:48;103890.66;;;-3.12;100.00
38620;BME280;24376;51.986;4.662;2022-12-18T02:18:07;103880.41;;;-3.12;100.00
38620;BME280;24376;51.986;4.662;2022-12-18T02:20:35;103884.72;;;-3.18;100.00
38620;BME280;24376;51.986;4.662;2022-12-18T02:28:30;103872.47;;;-3.33;100.00
38620;BME280;24376;51.986;4.662;2022-12-18T02:30:56;103866.94;;;-3.36;100.00
38620;BME280;24376;51.986;4.662;2022-12-18T02:33:24;103869.00;;;-3.34;100.00
38620;BME280;24376;51.986;4.662;2022-12-18T02:35:51;103882.53;;;-3.35;100.00
38620;BME280;24376;51.986;4.662;2022-12-18T02:38:18;103876.94;;;-3.45;100.00
38620;BME280;24376;51.986;4.662;2022-12-18T02:40:44;103871.69;;;-3.39;100.00
38620;BME280;24376;51.986;4.662;2022-12-18T02:43:11;103867.59;;;-3.44;100.00
38620;BME280;24376;51.986;4.662;2022-12-18T02:45:54;103865.66;;;-3.40;100.00
38620;BME280;24376;51.986;4.662;2022-12-18T02:48:24;103851.72;;;-3.42;100.00
38620;BME280;24376;51.986;4.662;2022-12-18T02:50:57;103840.66;;;-3.48;100.00
38620;BME280;24376;51.986;4.662;2022-12-18T02:55:54;103834.59;;;-3.49;100.00
38620;BME280;24376;51.986;4.662;2022-12-18T02:58:32;103832.41;;;-3.53;100.00
38620;BME280;24376;51.986;4.662;2022-12-18T03:01:05;103822.59;;;-3.62;100.00
38620;BME280;24376;51.986;4.662;2022-12-18T03:03:35;103824.41;;;-3.61;100.00
38620;BME280;24376;51.986;4.662;2022-12-18T03:06:04;103826.72;;;-3.70;100.00
38620;BME280;24376;51.986;4.662;2022-12-18T03:08:35;103814.22;;;-3.74;100.00
38620;BME280;24376;51.986;4.662;2022-12-18T03:11:03;103811.91;;;-3.85;100.00
38620;BME280;24376;51.986;4.662;2022-12-18T03:15:57;103793.06;;;-3.86;100.00
38620;BME280;24376;51.986;4.662;2022-12-18T03:18:34;103790.09;;;-3.89;100.00
38620;BME280;24376;51.986;4.662;2022-12-18T03:21:02;103798.13;;;-4.06;100.00
38620;BME280;24376;51.986;4.662;2022-12-18T03:23:35;103805.91;;;-3.98;100.00
38620;BME280;24376;51.986;4.662;2022-12-18T03:26:03;103795.47;;;-4.00;100.00
38620;BME280;24376;51.986;4.662;2022-12-18T03:28:30;103793.41;;;-4.03;100.00
38620;BME280;24376;51.986;4.662;2022-12-18T03:30:57;103796.69;;;-4.04;100.00
38620;BME280;24376;51.986;4.662;2022-12-18T03:33:25;103793.81;;;-3.99;100.00
38620;BME280;24376;51.986;4.662;2022-12-18T03:35:52;103799.31;;;-3.96;100.00
38620;BME280;24376;51.986;4.662;2022-12-18T03:38:18;103795.66;;;-3.98;100.00
38620;BME280;24376;51.986;4.662;2022-12-18T03:43:19;103793.72;;;-4.07;100.00
38620;BME280;24376;51.986;4.662;2022-12-18T03:45:48;103790.78;;;-4.10;100.00
38620;BME280;24376;51.986;4.662;2022-12-18T03:48:18;103792.78;;;-4.07;100.00
38620;BME280;24376;51.986;4.662;2022-12-18T03:55:37;103787.59;;;-4.14;100.00
38620;BME280;24376;51.986;4.662;2022-12-18T03:58:03;103788.13;;;-4.17;100.00
38620;BME280;24376;51.986;4.662;2022-12-18T04:00:31;103788.31;;;-4.15;100.00
38620;BME280;24376;51.986;4.662;2022-12-18T04:02:56;103784.31;;;-4.13;100.00
38620;BME280;24376;51.986;4.662;2022-12-18T04:05:24;103782.19;;;-4.23;100.00
38620;BME280;24376;51.986;4.662;2022-12-18T04:07:49;103781.88;;;-4.32;100.00
38620;BME280;24376;51.986;4.662;2022-12-18T04:10:16;103783.81;;;-4.36;100.00
38620;BME280;24376;51.986;4.662;2022-12-18T04:12:42;103793.69;;;-4.39;100.00
38620;BME280;24376;51.986;4.662;2022-12-18T04:15:07;103787.22;;;-4.43;100.00
38620;BME280;24376;51.986;4.662;2022-12-18T04:17:33;103791.94;;;-4.46;100.00
38620;BME280;24376;51.986;4.662;2022-12-18T04:19:58;103783.22;;;-4.53;100.00
38620;BME280;24376;51.986;4.662;2022-12-18T04:22:23;103786.22;;;-4.63;100.00
38620;BME280;24376;51.986;4.662;2022-12-18T04:24:48;103788.63;;;-4.70;100.00
38620;BME280;24376;51.986;4.662;2022-12-18T04:27:13;103788.44;;;-4.85;100.00
38620;BME280;24376;51.986;4.662;2022-12-18T04:29:39;103793.66;;;-4.90;100.00
38620;BME280;24376;51.986;4.662;2022-12-18T04:32:04;103789.44;;;-5.02;100.00
38620;BME280;24376;51.986;4.662;2022-12-18T04:34:29;103794.00;;;-5.13;100.00
38620;BME280;24376;51.986;4.662;2022-12-18T04:36:55;103794.63;;;-5.21;100.00
38620;BME280;24376;51.986;4.662;2022-12-18T04:39:20;103803.41;;;-5.19;100.00
38620;BME280;24376;51.986;4.662;2022-12-18T04:41:45;103801.94;;;-5.29;100.00
38620;BME280;24376;51.986;4.662;2022-12-18T04:44:11;103811.09;;;-5.37;100.00
38620;BME280;24376;51.986;4.662;2022-12-18T04:46:36;103814.47;;;-5.44;100.00
38620;BME280;24376;51.986;4.662;2022-12-18T04:49:01;103806.56;;;-5.45;100.00
38620;BME280;24376;51.986;4.662;2022-12-18T04:51:26;103813.22;;;-5.40;100.00
38620;BME280;24376;51.986;4.662;2022-12-18T04:53:51;103820.69;;;-5.42;100.00
38620;BME280;24376;51.986;4.662;2022-12-18T04:56:17;103812.09;;;-5.42;100.00
38620;BME280;24376;51.986;4.662;2022-12-18T04:58:42;103805.44;;;-5.47;100.00
38620;BME280;24376;51.986;4.662;2022-12-18T05:01:08;103801.34;;;-5.52;100.00
38620;BME280;24376;51.986;4.662;2022-12-18T05:03:37;103797.38;;;-5.50;100.00
38620;BME280;24376;51.986;4.662;2022-12-18T05:06:03;103802.97;;;-5.53;100.00
38620;BME280;24376;51.986;4.662;2022-12-18T05:08:28;103798.78;;;-5.52;100.00
38620;BME280;24376;51.986;4.662;2022-12-18T05:11:07;103798.38;;;-5.55;100.00
38620;BME280;24376;51.986;4.662;2022-12-18T05:13:32;103805.88;;;-5.63;100.00
38620;BME280;24376;51.986;4.662;2022-12-18T05:15:58;103811.28;;;-5.67;100.00
38620;BME280;24376;51.986;4.662;2022-12-18T05:18:23;103812.00;;;-5.68;100.00
38620;BME280;24376;51.986;4.662;2022-12-18T05:20:49;103818.94;;;-5.67;100.00
38620;BME280;24376;51.986;4.662;2022-12-18T05:23:14;103819.34;;;-5.64;100.00
38620;BME280;24376;51.986;4.662;2022-12-18T05:25:39;103810.97;;;-5.63;100.00
38620;BME280;24376;51.986;4.662;2022-12-18T05:28:05;103812.94;;;-5.67;100.00
38620;BME280;24376;51.986;4.662;2022-12-18T05:30:30;103805.28;;;-5.67;100.00
38620;BME280;24376;51.986;4.662;2022-12-18T05:32:55;103807.81;;;-5.67;100.00
38620;BME280;24376;51.986;4.662;2022-12-18T05:35:20;103799.00;;;-5.69;100.00
38620;BME280;24376;51.986;4.662;2022-12-18T05:37:45;103798.53;;;-5.67;100.00
38620;BME280;24376;51.986;4.662;2022-12-18T05:40:11;103803.63;;;-5.67;100.00
38620;BME280;24376;51.986;4.662;2022-12-18T05:42:36;103792.59;;;-5.73;100.00
38620;BME280;24376;51.986;4.662;2022-12-18T05:45:01;103789.09;;;-5.73;100.00
38620;BME280;24376;51.986;4.662;2022-12-18T05:47:27;103792.13;;;-5.76;100.00
38620;BME280;24376;51.986;4.662;2022-12-18T05:49:53;103785.72;;;-5.79;100.00
38620;BME280;24376;51.986;4.662;2022-12-18T05:52:18;103774.78;;;-5.91;100.00
38620;BME280;24376;51.986;4.662;2022-12-18T05:54:43;103780.97;;;-5.89;100.00
38620;BME280;24376;51.986;4.662;2022-12-18T05:57:09;103778.41;;;-5.89;100.00
38620;BME280;24376;51.986;4.662;2022-12-18T05:59:35;103779.63;;;-5.93;100.00
38620;BME280;24376;51.986;4.662;2022-12-18T06:02:00;103783.09;;;-5.92;100.00
38620;BME280;24376;51.986;4.662;2022-12-18T06:04:26;103779.53;;;-5.87;100.00
38620;BME280;24376;51.986;4.662;2022-12-18T06:07:00;103770.03;;;-5.88;100.00
38620;BME280;24376;51.986;4.662;2022-12-18T06:09:25;103765.03;;;-5.94;100.00
38620;BME280;24376;51.986;4.662;2022-12-18T06:11:51;103765.84;;;-5.88;100.00
38620;BME280;24376;51.986;4.662;2022-12-18T06:14:17;103754.72;;;-5.88;100.00
38620;BME280;24376;51.986;4.662;2022-12-18T06:16:42;103753.28;;;-5.86;100.00
38620;BME280;24376;51.986;4.662;2022-12-18T06:19:07;103757.41;;;-5.81;100.00
38620;BME280;24376;51.986;4.662;2022-12-18T06:21:32;103749.63;;;-5.88;100.00
38620;BME280;24376;51.986;4.662;2022-12-18T06:23:57;103735.75;;;-5.90;100.00
38620;BME280;24376;51.986;4.662;2022-12-18T06:26:23;103735.34;;;-5.93;100.00
38620;BME280;24376;51.986;4.662;2022-12-18T06:28:57;103732.06;;;-5.92;100.00
38620;BME280;24376;51.986;4.662;2022-12-18T06:31:22;103732.06;;;-5.92;100.00
38620;BME280;24376;51.986;4.662;2022-12-18T06:33:48;103733.38;;;-6.01;100.00
38620;BME280;24376;51.986;4.662;2022-12-18T06:36:13;103734.09;;;-6.02;100.00
38620;BME280;24376;51.986;4.662;2022-12-18T06:38:39;103729.00;;;-6.02;100.00
38620;BME280;24376;51.986;4.662;2022-12-18T06:41:08;103724.03;;;-5.95;100.00
38620;BME280;24376;51.986;4.662;2022-12-18T06:43:34;103715.94;;;-5.98;100.00
38620;BME280;24376;51.986;4.662;2022-12-18T06:45:59;103708.59;;;-6.02;100.00
38620;BME280;24376;51.986;4.662;2022-12-18T06:48:25;103713.25;;;-6.05;100.00
38620;BME280;24376;51.986;4.662;2022-12-18T06:50:53;103709.13;;;-6.10;100.00
38620;BME280;24376;51.986;4.662;2022-12-18T06:53:18;103698.94;;;-6.10;100.00
38620;BME280;24376;51.986;4.662;2022-12-18T06:55:43;103696.09;;;-6.06;100.00
38620;BME280;24376;51.986;4.662;2022-12-18T06:58:09;103694.28;;;-6.07;100.00
38620;BME280;24376;51.986;4.662;2022-12-18T07:00:34;103689.16;;;-6.07;100.00
38620;BME280;24376;51.986;4.662;2022-12-18T07:02:59;103687.09;;;-6.10;100.00
38620;BME280;24376;51.986;4.662;2022-12-18T07:05:24;103678.53;;;-6.10;100.00
38620;BME280;24376;51.986;4.662;2022-12-18T07:07:50;103669.47;;;-6.08;100.00
38620;BME280;24376;51.986;4.662;2022-12-18T07:10:15;103665.38;;;-6.13;100.00
38620;BME280;24376;51.986;4.662;2022-12-18T07:12:40;103669.75;;;-6.12;100.00
38620;BME280;24376;51.986;4.662;2022-12-18T07:15:06;103654.00;;;-6.16;100.00
38620;BME280;24376;51.986;4.662;2022-12-18T07:17:31;103659.84;;;-6.17;100.00
38620;BME280;24376;51.986;4.662;2022-12-18T07:19:57;103651.78;;;-6.20;100.00
38620;BME280;24376;51.986;4.662;2022-12-18T07:22:22;103640.34;;;-6.16;100.00
38620;BME280;24376;51.986;4.662;2022-12-18T07:24:47;103625.75;;;-6.17;100.00
38620;BME280;24376;51.986;4.662;2022-12-18T07:27:12;103607.91;;;-6.17;100.00
38620;BME280;24376;51.986;4.662;2022-12-18T07:29:37;103600.78;;;-6.20;100.00
38620;BME280;24376;51.986;4.662;2022-12-18T07:32:03;103593.72;;;-6.15;100.00
38620;BME280;24376;51.986;4.662;2022-12-18T07:34:28;103595.34;;;-6.16;100.00
38620;BME280;24376;51.986;4.662;2022-12-18T07:36:53;103588.53;;;-6.09;100.00
38620;BME280;24376;51.986;4.662;2022-12-18T07:39:18;103588.78;;;-6.08;100.00
38620;BME280;24376;51.986;4.662;2022-12-18T07:41:43;103578.69;;;-6.01;100.00
38620;BME280;24376;51.986;4.662;2022-12-18T07:44:11;103578.78;;;-6.06;100.00
38620;BME280;24376;51.986;4.662;2022-12-18T07:46:36;103598.19;;;-6.01;100.00
38620;BME280;24376;51.986;4.662;2022-12-18T07:49:01;103601.44;;;-6.02;100.00
38620;BME280;24376;51.986;4.662;2022-12-18T07:51:26;103604.19;;;-6.01;100.00
38620;BME280;24376;51.986;4.662;2022-12-18T07:53:51;103607.94;;;-6.04;100.00
38620;BME280;24376;51.986;4.662;2022-12-18T07:56:17;103605.75;;;-5.96;100.00
38620;BME280;24376;51.986;4.662;2022-12-18T07:58:42;103585.09;;;-5.97;100.00
38620;BME280;24376;51.986;4.662;2022-12-18T08:01:10;103592.06;;;-5.96;100.00
38620;BME280;24376;51.986;4.662;2022-12-18T08:03:36;103590.19;;;-5.97;100.00
38620;BME280;24376;51.986;4.662;2022-12-18T08:06:05;103588.38;;;-5.98;100.00
38620;BME280;24376;51.986;4.662;2022-12-18T08:08:31;103584.69;;;-6.00;100.00
38620;BME280;24376;51.986;4.662;2022-12-18T08:10:57;103591.63;;;-5.99;100.00
38620;BME280;24376;51.986;4.662;2022-12-18T08:13:22;103587.66;;;-5.97;100.00
38620;BME280;24376;51.986;4.662;2022-12-18T08:16:06;103577.56;;;-5.90;100.00
38620;BME280;24376;51.986;4.662;2022-12-18T08:18:32;103567.97;;;-5.85;100.00
38620;BME280;24376;51.986;4.662;2022-12-18T08:20:57;103573.22;;;-5.91;100.00
38620;BME280;24376;51.986;4.662;2022-12-18T08:23:23;103571.03;;;-5.88;100.00
38620;BME280;24376;51.986;4.662;2022-12-18T08:25:48;103568.19;;;-5.84;100.00
38620;BME280;24376;51.986;4.662;2022-12-18T08:28:13;103571.56;;;-5.78;100.00
38620;BME280;24376;51.986;4.662;2022-12-18T08:30:38;103557.78;;;-5.73;100.00
38620;BME280;24376;51.986;4.662;2022-12-18T08:33:04;103555.34;;;-5.66;100.00
38620;BME280;24376;51.986;4.662;2022-12-18T08:35:29;103552.47;;;-5.62;100.00
38620;BME280;24376;51.986;4.662;2022-12-18T08:37:54;103556.56;;;-5.56;100.00
38620;BME280;24376;51.986;4.662;2022-12-18T08:40:19;103557.38;;;-5.50;100.00
38620;BME280;24376;51.986;4.662;2022-12-18T08:42:44;103559.94;;;-5.50;100.00
38620;BME280;24376;51.986;4.662;2022-12-18T08:45:28;103572.81;;;-5.43;100.00
38620;BME280;24376;51.986;4.662;2022-12-18T08:47:54;103590.56;;;-5.38;100.00
38620;BME280;24376;51.986;4.662;2022-12-18T08:50:19;103589.22;;;-5.28;100.00
38620;BME280;24376;51.986;4.662;2022-12-18T08:52:45;103592.69;;;-5.28;100.00
38620;BME280;24376;51.986;4.662;2022-12-18T08:55:10;103598.03;;;-5.26;100.00
38620;BME280;24376;51.986;4.662;2022-12-18T08:57:35;103598.50;;;-5.16;100.00
38620;BME280;24376;51.986;4.662;2022-12-18T09:00:00;103590.34;;;-5.14;100.00
38620;BME280;24376;51.986;4.662;2022-12-18T09:02:25;103597.72;;;-5.10;100.00
38620;BME280;24376;51.986;4.662;2022-12-18T09:04:50;103595.63;;;-4.99;100.00
38620;BME280;24376;51.986;4.662;2022-12-18T09:07:16;103579.69;;;-4.91;100.00
38620;BME280;24376;51.986;4.662;2022-12-18T09:09:41;103582.34;;;-4.84;100.00
38620;BME280;24376;51.986;4.662;2022-12-18T09:12:06;103568.91;;;-4.76;100.00
38620;BME280;24376;51.986;4.662;2022-12-18T09:14:31;103576.16;;;-4.66;100.00
38620;BME280;24376;51.986;4.662;2022-12-18T09:16:57;103573.66;;;-4.59;100.00
38620;BME280;24376;51.986;4.662;2022-12-18T09:19:22;103564.44;;;-4.51;100.00
38620;BME280;24376;51.986;4.662;2022-12-18T09:21:47;103555.94;;;-4.45;100.00
38620;BME280;24376;51.986;4.662;2022-12-18T09:24:13;103527.69;;;-4.39;100.00
38620;BME280;24376;51.986;4.662;2022-12-18T09:26:38;103510.50;;;-4.40;100.00
38620;BME280;24376;51.986;4.662;2022-12-18T09:29:03;103509.03;;;-4.38;100.00
38620;BME280;24376;51.986;4.662;2022-12-18T09:31:29;103506.53;;;-4.31;100.00
38620;BME280;24376;51.986;4.662;2022-12-18T09:33:54;103506.81;;;-4.22;100.00
38620;BME280;24376;51.986;4.662;2022-12-18T09:36:20;103531.13;;;-4.19;100.00
38620;BME280;24376;51.986;4.662;2022-12-18T09:38:45;103530.25;;;-4.12;100.00
38620;BME280;24376;51.986;4.662;2022-12-18T09:41:27;103517.56;;;-4.05;100.00
38620;BME280;24376;51.986;4.662;2022-12-18T09:43:58;103522.59;;;-3.92;100.00
38620;BME280;24376;51.986;4.662;2022-12-18T09:46:29;103511.84;;;-3.83;100.00
38620;BME280;24376;51.986;4.662;2022-12-18T09:48:56;103508.03;;;-3.79;100.00
38620;BME280;24376;51.986;4.662;2022-12-18T09:51:26;103513.56;;;-3.76;100.00
38620;BME280;24376;51.986;4.662;2022-12-18T09:53:55;103523.66;;;-3.70;100.00
38620;BME280;24376;51.986;4.662;2022-12-18T09:56:21;103516.38;;;-3.60;100.00
38620;BME280;24376;51.986;4.662;2022-12-18T10:01:14;103506.75;;;-3.49;100.00
38620;BME280;24376;51.986;4.662;2022-12-18T10:03:41;103485.56;;;-3.40;100.00
38620;BME280;24376;51.986;4.662;2022-12-18T10:08:49;103471.16;;;-3.26;100.00
38620;BME280;24376;51.986;4.662;2022-12-18T10:14:21;103470.09;;;-3.13;100.00
38620;BME280;24376;51.986;4.662;2022-12-18T10:27:07;103417.81;;;-3.01;100.00
38620;BME280;24376;51.986;4.662;2022-12-18T10:29:34;103417.25;;;-2.99;100.00
38620;BME280;24376;51.986;4.662;2022-12-18T10:31:59;103413.25;;;-2.89;100.00
38620;BME280;24376;51.986;4.662;2022-12-18T10:34:25;103415.81;;;-2.82;100.00
38620;BME280;24376;51.986;4.662;2022-12-18T10:36:50;103397.50;;;-2.78;100.00
38620;BME280;24376;51.986;4.662;2022-12-18T10:39:19;103391.47;;;-2.72;100.00
38620;BME280;24376;51.986;4.662;2022-12-18T10:41:45;103390.91;;;-2.76;100.00
38620;BME280;24376;51.986;4.662;2022-12-18T10:44:11;103387.25;;;-2.64;100.00
38620;BME280;24376;51.986;4.662;2022-12-18T10:46:37;103384.31;;;-2.60;100.00
38620;BME280;24376;51.986;4.662;2022-12-18T10:49:02;103377.34;;;-2.47;100.00
38620;BME280;24376;51.986;4.662;2022-12-18T10:51:32;103382.81;;;-2.44;100.00
38620;BME280;24376;51.986;4.662;2022-12-18T10:54:05;103377.31;;;-2.32;100.00
38620;BME280;24376;51.986;4.662;2022-12-18T10:56:31;103369.41;;;-2.27;100.00
38620;BME280;24376;51.986;4.662;2022-12-18T10:58:59;103365.19;;;-2.26;100.00
38620;BME280;24376;51.986;4.662;2022-12-18T11:01:25;103355.69;;;-2.27;100.00
38620;BME280;24376;51.986;4.662;2022-12-18T11:06:20;103343.91;;;-2.11;100.00
38620;BME280;24376;51.986;4.662;2022-12-18T11:09:05;103336.91;;;-2.05;100.00
38620;BME280;24376;51.986;4.662;2022-12-18T11:11:31;103335.44;;;-1.96;100.00
38620;BME280;24376;51.986;4.662;2022-12-18T11:13:58;103331.44;;;-2.15;100.00
38620;BME280;24376;51.986;4.662;2022-12-18T11:16:25;103323.53;;;-2.02;100.00
38620;BME280;24376;51.986;4.662;2022-12-18T11:18:51;103334.09;;;-1.92;100.00
38620;BME280;24376;51.986;4.662;2022-12-18T11:21:16;103336.47;;;-1.79;100.00
38620;BME280;24376;51.986;4.662;2022-12-18T11:23:46;103322.47;;;-1.74;100.00
38620;BME280;24376;51.986;4.662;2022-12-18T11:26:12;103323.97;;;-1.76;100.00
38620;BME280;24376;51.986;4.662;2022-12-18T11:28:39;103316.00;;;-1.64;100.00
38620;BME280;24376;51.986;4.662;2022-12-18T11:33:40;103307.69;;;-1.54;100.00
38620;BME280;24376;51.986;4.662;2022-12-18T11:36:07;103289.03;;;-1.60;100.00
38620;BME280;24376;51.986;4.662;2022-12-18T11:38:34;103296.63;;;-1.46;100.00
38620;BME280;24376;51.986;4.662;2022-12-18T11:41:05;103297.22;;;-1.48;100.00
38620;BME280;24376;51.986;4.662;2022-12-18T11:43:38;103281.34;;;-1.37;100.00
38620;BME280;24376;51.986;4.662;2022-12-18T11:46:07;103264.28;;;-1.37;100.00
38620;BME280;24376;51.986;4.662;2022-12-18T11:48:43;103254.72;;;-1.38;100.00
38620;BME280;24376;51.986;4.662;2022-12-18T11:51:11;103248.72;;;-1.45;100.00
38620;BME280;24376;51.986;4.662;2022-12-18T11:53:39;103244.28;;;-1.39;100.00
38620;BME280;24376;51.986;4.662;2022-12-18T11:56:19;103228.13;;;-1.38;100.00
38620;BME280;24376;51.986;4.662;2022-12-18T12:14:55;103186.25;;;-1.37;100.00
38620;BME280;24376;51.986;4.662;2022-12-18T12:19:53;103180.81;;;-1.24;100.00
38620;BME280;24376;51.986;4.662;2022-12-18T12:22:32;103183.38;;;-1.24;100.00
38620;BME280;24376;51.986;4.662;2022-12-18T12:27:42;103185.63;;;-1.27;100.00
38620;BME280;24376;51.986;4.662;2022-12-18T12:30:09;103175.69;;;-1.24;100.00
38620;BME280;24376;51.986;4.662;2022-12-18T12:35:15;103165.81;;;-1.13;100.00
38620;BME280;24376;51.986;4.662;2022-12-18T12:37:54;103168.25;;;-1.14;100.00
38620;BME280;24376;51.986;4.662;2022-12-18T12:40:24;103166.41;;;-1.15;100.00
38620;BME280;24376;51.986;4.662;2022-12-18T12:42:53;103166.75;;;-1.12;100.00
38620;BME280;24376;51.986;4.662;2022-12-18T12:48:27;103172.47;;;-1.15;100.00
38620;BME280;24376;51.986;4.662;2022-12-18T12:50:55;103167.28;;;-1.30;100.00
38620;BME280;24376;51.986;4.662;2022-12-18T12:53:32;103165.66;;;-1.14;100.00
38620;BME280;24376;51.986;4.662;2022-12-18T12:55:59;103160.13;;;-1.10;100.00
38620;BME280;24376;51.986;4.662;2022-12-18T13:00:53;103170.22;;;-1.12;100.00
38620;BME280;24376;51.986;4.662;2022-12-18T13:03:26;103163.84;;;-1.15;100.00
38620;BME280;24376;51.986;4.662;2022-12-18T13:05:59;103161.19;;;-1.08;100.00
38620;BME280;24376;51.986;4.662;2022-12-18T13:08:27;103146.44;;;-1.02;100.00
38620;BME280;24376;51.986;4.662;2022-12-18T13:10:53;103134.88;;;-1.05;100.00
38620;BME280;24376;51.986;4.662;2022-12-18T13:13:51;103137.72;;;-1.11;100.00
38620;BME280;24376;51.986;4.662;2022-12-18T13:16:21;103135.66;;;-1.07;100.00
38620;BME280;24376;51.986;4.662;2022-12-18T13:18:51;103127.84;;;-0.99;100.00
38620;BME280;24376;51.986;4.662;2022-12-18T13:21:30;103134.56;;;-1.09;100.00
38620;BME280;24376;51.986;4.662;2022-12-18T13:23:56;103128.53;;;-1.09;100.00
38620;BME280;24376;51.986;4.662;2022-12-18T13:31:13;103115.16;;;-1.14;100.00
38620;BME280;24376;51.986;4.662;2022-12-18T13:38:36;103102.72;;;-1.18;100.00
38620;BME280;24376;51.986;4.662;2022-12-18T13:41:03;103117.72;;;-1.14;100.00
38620;BME280;24376;51.986;4.662;2022-12-18T13:51:22;103089.28;;;-1.15;100.00
38620;BME280;24376;51.986;4.662;2022-12-18T13:53:49;103092.94;;;-1.13;100.00
38620;BME280;24376;51.986;4.662;2022-12-18T13:56:18;103089.28;;;-1.15;100.00
38620;BME280;24376;51.986;4.662;2022-12-18T13:58:46;103093.00;;;-1.20;100.00
38620;BME280;24376;51.986;4.662;2022-12-18T14:01:44;103085.31;;;-1.20;100.00
38620;BME280;24376;51.986;4.662;2022-12-18T14:04:16;103081.06;;;-1.20;100.00
38620;BME280;24376;51.986;4.662;2022-12-18T14:06:42;103072.75;;;-1.17;100.00
38620;BME280;24376;51.986;4.662;2022-12-18T14:09:10;103075.28;;;-1.10;100.00
38620;BME280;24376;51.986;4.662;2022-12-18T14:11:37;103077.56;;;-1.04;100.00
38620;BME280;24376;51.986;4.662;2022-12-18T14:14:03;103074.19;;;-1.12;100.00
38620;BME280;24376;51.986;4.662;2022-12-18T14:16:32;103072.88;;;-1.09;100.00